Ashville, AL

7:38 PM CDT on July 28, 2015 (GMT -0500)
Straight Mountain | | Change Station
CLOSE
Current Station
Personal Weather Station
Location: Oneonta, AL
Elevation: 1095 ft
Nearby Weather Stations

Elev 1095 ft 33.92 °N, 86.42 °W | Updated 10 seconds ago

Partly Cloudy
Partly Cloudy
85.5 °F
Feels Like 96 °F
N
0.0
Wind Variable Wind from West
Gusts 0.0 mph

Today
High -- | Low -- °F
--% Chance of Precip.
Yesterday
High -- | Low -- °F
Precip. -- in
5:53 AM 7:48 PM
Waxing Gibbous, 92% visible
Pressure 29.96 in
Visibility 10.0 miles
Clouds Few 4700 ft
Scattered Clouds 5000 ft
Heat Index 96 °F
Dew Point 76 °F
Humidity 74%
Rainfall 0.00 in
Snow Depth Not available.
UV 0.0 out of 12
Pollen 2.90 out of 12
Air Quality Not available.
Flu Activity Not available.
METAR KGAD 290035Z 04005KT 10SM FEW047 SCT050 28/21 A2996 RMK AO1 TSE10

More Conditions Fewer Conditions

Pressure 29.96 in
Visibility 10.0 miles
Clouds Few 4700 ft
Scattered Clouds 5000 ft
Heat Index 96 °F
Dew Point 76 °F
Humidity 74%
Rainfall 0.00 in
Snow Depth Not available.
UV 0.0 out of 12
Pollen 2.90 out of 12
Air Quality Not available.
Flu Activity Not available.
METAR KGAD 290035Z 04005KT 10SM FEW047 SCT050 28/21 A2996 RMK AO1 TSE10

More Conditions Fewer Conditions

10-Day Weather Forecast

×

Almanac

Astronomy

Jul. 28, 2015 Rise Set
Actual Time
Civil Twilight
Nautical Twilight
Astronomical Twilight
Moon
Length of Visible Light
Length of Day
Tomorrow will be .
, % of the Moon is Illuminated

Today's Extremes

State Highs State Lows

Community

WunderPhotos

Upload Photos

1,841,986 photos uploaded!

WunderBlogs® & News

Nearby

Air Quality

  Air Quality AQ Index Pollutant
Not available.

Snow Depth

Station Depth Elevation

Earthquake Activity

City Distance Mag. Time & Date
Minimum magnitude displayed is 2.5.

Coastal Water Temperatures

Place Temperature

Stations

Nearby Weather Stations

Station Location Temp. Windchill Dew Point Humidity Wind Precip. Elev Updated Type